sensor_id;sensor_type;location;lat;lon;timestamp;pressure;altitude;pressure_sealevel;temperature;humidity
56414;BME280;42318;48.452;19.526;2023-04-06T00:07:03;98369.50;;;21.02;45.15
56414;BME280;42318;48.452;19.526;2023-04-06T00:14:33;98371.94;;;20.98;45.49
56414;BME280;42318;48.452;19.526;2023-04-06T00:22:05;98378.50;;;21.08;45.04
56414;BME280;42318;48.452;19.526;2023-04-06T00:29:36;98367.13;;;21.21;44.67
56414;BME280;42318;48.452;19.526;2023-04-06T00:37:07;98361.22;;;21.34;44.20
56414;BME280;42318;48.452;19.526;2023-04-06T00:44:38;98352.25;;;21.39;44.14
56414;BME280;42318;48.452;19.526;2023-04-06T00:52:09;98348.97;;;21.31;44.08
56414;BME280;42318;48.452;19.526;2023-04-06T00:59:41;98349.78;;;21.32;44.33
56414;BME280;42318;48.452;19.526;2023-04-06T01:07:11;98347.03;;;21.27;44.38
56414;BME280;42318;48.452;19.526;2023-04-06T01:14:42;98347.03;;;21.27;44.74
56414;BME280;42318;48.452;19.526;2023-04-06T01:22:15;98340.47;;;21.23;44.52
56414;BME280;42318;48.452;19.526;2023-04-06T01:29:47;98338.34;;;21.30;44.68
56414;BME280;42318;48.452;19.526;2023-04-06T01:37:17;98331.78;;;21.31;44.59
56414;BME280;42318;48.452;19.526;2023-04-06T01:44:48;98326.88;;;21.28;44.51
56414;BME280;42318;48.452;19.526;2023-04-06T01:52:19;98313.44;;;21.21;44.97
56414;BME280;42318;48.452;19.526;2023-04-06T01:59:51;98309.06;;;21.15;45.02
56414;BME280;42318;48.452;19.526;2023-04-06T02:07:22;98299.53;;;21.13;45.04
56414;BME280;42318;48.452;19.526;2023-04-06T02:14:53;98293.53;;;21.16;44.94
56414;BME280;42318;48.452;19.526;2023-04-06T02:22:23;98277.19;;;21.16;44.66
56414;BME280;42318;48.452;19.526;2023-04-06T02:29:54;98284.28;;;21.12;44.82
56414;BME280;42318;48.452;19.526;2023-04-06T02:37:25;98266.81;;;21.08;44.79
56414;BME280;42318;48.452;19.526;2023-04-06T02:44:56;98270.38;;;21.13;44.51
56414;BME280;42318;48.452;19.526;2023-04-06T02:52:27;98271.50;;;21.22;44.42
56414;BME280;42318;48.452;19.526;2023-04-06T02:59:58;98268.28;;;21.30;44.21
56414;BME280;42318;48.452;19.526;2023-04-06T03:07:28;98264.22;;;21.38;44.10
56414;BME280;42318;48.452;19.526;2023-04-06T03:14:59;98263.97;;;21.45;44.24
56414;BME280;42318;48.452;19.526;2023-04-06T03:22:30;98260.41;;;21.39;43.93
56414;BME280;42318;48.452;19.526;2023-04-06T03:30:02;98257.38;;;21.25;44.42
56414;BME280;42318;48.452;19.526;2023-04-06T03:37:33;98257.03;;;21.17;44.57
56414;BME280;42318;48.452;19.526;2023-04-06T03:45:04;98250.50;;;21.13;44.67
56414;BME280;42318;48.452;19.526;2023-04-06T03:52:35;98240.66;;;21.07;44.87
56414;BME280;42318;48.452;19.526;2023-04-06T04:00:07;98226.50;;;20.99;44.97
56414;BME280;42318;48.452;19.526;2023-04-06T04:07:38;98228.13;;;20.95;45.09
56414;BME280;42318;48.452;19.526;2023-04-06T04:15:09;98229.19;;;20.89;45.03
56414;BME280;42318;48.452;19.526;2023-04-06T04:22:40;98232.72;;;20.85;45.29
56414;BME280;42318;48.452;19.526;2023-04-06T04:30:11;98226.13;;;20.81;45.37
56414;BME280;42318;48.452;19.526;2023-04-06T04:37:42;98215.50;;;20.79;44.95
56414;BME280;42318;48.452;19.526;2023-04-06T04:45:13;98216.94;;;20.92;44.46
56414;BME280;42318;48.452;19.526;2023-04-06T04:52:43;98216.16;;;21.07;44.23
56414;BME280;42318;48.452;19.526;2023-04-06T05:00:14;98200.09;;;21.15;44.14
56414;BME280;42318;48.452;19.526;2023-04-06T05:07:45;98194.38;;;21.12;43.93
56414;BME280;42318;48.452;19.526;2023-04-06T05:15:16;98189.72;;;20.97;44.34
56414;BME280;42318;48.452;19.526;2023-04-06T05:22:47;98173.91;;;20.89;44.51
56414;BME280;42318;48.452;19.526;2023-04-06T05:30:18;98172.53;;;20.81;44.86
56414;BME280;42318;48.452;19.526;2023-04-06T05:37:49;98168.94;;;20.76;44.75
56414;BME280;42318;48.452;19.526;2023-04-06T05:45:20;98158.31;;;20.69;44.55
56414;BME280;42318;48.452;19.526;2023-04-06T05:52:51;98155.56;;;20.64;45.11
56414;BME280;42318;48.452;19.526;2023-04-06T06:00:22;98151.75;;;20.60;45.22
56414;BME280;42318;48.452;19.526;2023-04-06T06:07:53;98146.84;;;20.52;44.98
56414;BME280;42318;48.452;19.526;2023-04-06T06:15:24;98133.47;;;20.45;44.86
56414;BME280;42318;48.452;19.526;2023-04-06T06:22:55;98129.69;;;20.46;45.21
56414;BME280;42318;48.452;19.526;2023-04-06T06:30:26;98136.75;;;20.47;45.33
56414;BME280;42318;48.452;19.526;2023-04-06T06:37:57;98127.56;;;20.74;44.76
56414;BME280;42318;48.452;19.526;2023-04-06T06:45:28;98131.44;;;20.93;44.59
56414;BME280;42318;48.452;19.526;2023-04-06T06:53:00;98135.78;;;21.09;44.60
56414;BME280;42318;48.452;19.526;2023-04-06T07:00:31;98119.72;;;21.13;44.69
56414;BME280;42318;48.452;19.526;2023-04-06T07:08:01;98119.44;;;21.19;44.42
56414;BME280;42318;48.452;19.526;2023-04-06T07:15:32;98122.50;;;21.28;44.35
56414;BME280;42318;48.452;19.526;2023-04-06T07:23:03;98123.03;;;21.35;44.43
56414;BME280;42318;48.452;19.526;2023-04-06T07:30:34;98114.88;;;21.35;45.08
56414;BME280;42318;48.452;19.526;2023-04-06T07:38:05;98117.59;;;21.45;44.48
56414;BME280;42318;48.452;19.526;2023-04-06T07:45:35;98113.50;;;21.48;44.15
56414;BME280;42318;48.452;19.526;2023-04-06T07:53:06;98115.69;;;21.41;44.78
56414;BME280;42318;48.452;19.526;2023-04-06T08:00:37;98117.88;;;21.39;44.60
56414;BME280;42318;48.452;19.526;2023-04-06T08:08:08;98112.69;;;21.42;44.36
56414;BME280;42318;48.452;19.526;2023-04-06T08:15:39;98117.31;;;21.42;44.45
56414;BME280;42318;48.452;19.526;2023-04-06T08:23:10;98108.31;;;21.41;44.33
56414;BME280;42318;48.452;19.526;2023-04-06T08:30:42;98111.06;;;21.41;44.05
56414;BME280;42318;48.452;19.526;2023-04-06T08:38:13;98113.78;;;21.36;44.22
56414;BME280;42318;48.452;19.526;2023-04-06T08:45:43;98116.50;;;21.41;43.79
56414;BME280;42318;48.452;19.526;2023-04-06T08:53:15;98115.94;;;21.44;44.07
56414;BME280;42318;48.452;19.526;2023-04-06T09:00:47;98109.13;;;21.47;43.60
56414;BME280;42318;48.452;19.526;2023-04-06T09:08:18;98102.59;;;21.43;43.81
56414;BME280;42318;48.452;19.526;2023-04-06T09:15:59;98099.59;;;21.49;43.34
56414;BME280;42318;48.452;19.526;2023-04-06T09:23:30;98091.97;;;21.46;43.01
56414;BME280;42318;48.452;19.526;2023-04-06T09:31:01;98100.13;;;21.56;43.04
56414;BME280;42318;48.452;19.526;2023-04-06T09:38:32;98090.28;;;21.66;43.14
56414;BME280;42318;48.452;19.526;2023-04-06T09:46:04;98087.28;;;21.77;44.66
56414;BME280;42318;48.452;19.526;2023-04-06T09:53:37;98081.00;;;21.77;46.28
56414;BME280;42318;48.452;19.526;2023-04-06T10:01:15;98057.03;;;21.69;48.91
56414;BME280;42318;48.452;19.526;2023-04-06T10:08:50;98067.41;;;21.72;51.88
56414;BME280;42318;48.452;19.526;2023-04-06T10:16:22;98040.41;;;21.60;50.89
56414;BME280;42318;48.452;19.526;2023-04-06T10:24:00;98029.50;;;21.60;50.46
56414;BME280;42318;48.452;19.526;2023-04-06T10:31:32;98025.44;;;21.57;50.66
56414;BME280;42318;48.452;19.526;2023-04-06T10:39:04;98020.75;;;21.73;51.16
56414;BME280;42318;48.452;19.526;2023-04-06T10:46:36;98021.22;;;21.90;50.95
56414;BME280;42318;48.452;19.526;2023-04-06T10:54:07;98025.00;;;22.00;50.40
56414;BME280;42318;48.452;19.526;2023-04-06T11:01:44;98019.53;;;22.15;50.02
56414;BME280;42318;48.452;19.526;2023-04-06T11:09:29;98009.72;;;22.14;50.50
56414;BME280;42318;48.452;19.526;2023-04-06T11:17:00;98006.72;;;22.15;49.86
56414;BME280;42318;48.452;19.526;2023-04-06T11:24:31;98009.47;;;22.00;49.91
56414;BME280;42318;48.452;19.526;2023-04-06T11:32:06;98008.19;;;21.77;50.46
56414;BME280;42318;48.452;19.526;2023-04-06T11:39:39;98009.03;;;21.68;50.27
56414;BME280;42318;48.452;19.526;2023-04-06T11:47:11;98002.25;;;21.55;49.90
56414;BME280;42318;48.452;19.526;2023-04-06T11:54:42;98000.38;;;21.45;50.18
56414;BME280;42318;48.452;19.526;2023-04-06T12:02:13;97997.13;;;21.38;50.14
56414;BME280;42318;48.452;19.526;2023-04-06T12:09:44;97990.63;;;21.29;50.28
56414;BME280;42318;48.452;19.526;2023-04-06T12:17:15;97978.31;;;21.21;50.20
56414;BME280;42318;48.452;19.526;2023-04-06T12:24:45;97988.41;;;21.16;49.74
56414;BME280;42318;48.452;19.526;2023-04-06T12:32:16;97990.34;;;21.10;49.57
56414;BME280;42318;48.452;19.526;2023-04-06T12:39:47;97986.53;;;21.01;49.67
56414;BME280;42318;48.452;19.526;2023-04-06T12:47:18;97998.25;;;21.01;49.59
56414;BME280;42318;48.452;19.526;2023-04-06T12:54:49;97981.66;;;20.93;49.61
56414;BME280;42318;48.452;19.526;2023-04-06T13:02:20;97981.38;;;20.89;49.99
56414;BME280;42318;48.452;19.526;2023-04-06T13:09:52;97971.84;;;20.87;49.54
56414;BME280;42318;48.452;19.526;2023-04-06T13:17:22;97985.47;;;20.82;48.99
56414;BME280;42318;48.452;19.526;2023-04-06T13:24:54;97981.34;;;20.79;49.32
56414;BME280;42318;48.452;19.526;2023-04-06T13:32:25;97983.81;;;20.81;49.22
56414;BME280;42318;48.452;19.526;2023-04-06T13:39:56;97974.53;;;21.07;48.56
56414;BME280;42318;48.452;19.526;2023-04-06T13:47:27;97967.47;;;21.06;48.31
56414;BME280;42318;48.452;19.526;2023-04-06T13:54:58;97974.25;;;21.19;48.04
56414;BME280;42318;48.452;19.526;2023-04-06T14:02:29;97966.66;;;21.26;48.03
56414;BME280;42318;48.452;19.526;2023-04-06T14:10:00;97976.44;;;21.32;47.60
56414;BME280;42318;48.452;19.526;2023-04-06T14:17:31;97962.81;;;21.37;47.60
56414;BME280;42318;48.452;19.526;2023-04-06T14:25:02;97974.25;;;21.39;48.05
56414;BME280;42318;48.452;19.526;2023-04-06T14:32:32;97975.38;;;21.28;47.99
56414;BME280;42318;48.452;19.526;2023-04-06T14:40:04;97960.38;;;21.25;47.64
56414;BME280;42318;48.452;19.526;2023-04-06T14:47:35;97967.69;;;21.45;47.35
56414;BME280;42318;48.452;19.526;2023-04-06T14:55:06;97960.91;;;21.38;47.63
56414;BME280;42318;48.452;19.526;2023-04-06T15:02:38;97975.06;;;21.24;48.38
56414;BME280;42318;48.452;19.526;2023-04-06T15:10:10;97981.38;;;21.25;48.68
56414;BME280;42318;48.452;19.526;2023-04-06T15:17:41;97978.56;;;21.50;48.59
56414;BME280;42318;48.452;19.526;2023-04-06T15:25:11;97987.78;;;21.59;48.08
56414;BME280;42318;48.452;19.526;2023-04-06T15:32:57;97991.88;;;21.62;48.10
56414;BME280;42318;48.452;19.526;2023-04-06T15:40:29;97999.78;;;21.63;47.95
56414;BME280;42318;48.452;19.526;2023-04-06T15:48:00;97999.50;;;21.65;48.15
56414;BME280;42318;48.452;19.526;2023-04-06T15:55:31;97998.72;;;21.54;47.95
56414;BME280;42318;48.452;19.526;2023-04-06T16:03:01;98000.94;;;21.47;48.00
56414;BME280;42318;48.452;19.526;2023-04-06T16:10:33;98014.59;;;21.32;48.55
56414;BME280;42318;48.452;19.526;2023-04-06T16:18:03;98008.56;;;21.20;48.96
56414;BME280;42318;48.452;19.526;2023-04-06T16:25:34;98021.66;;;21.13;49.00
56414;BME280;42318;48.452;19.526;2023-04-06T16:33:05;98021.94;;;21.06;49.11
56414;BME280;42318;48.452;19.526;2023-04-06T16:40:36;98027.66;;;20.99;49.21
56414;BME280;42318;48.452;19.526;2023-04-06T16:48:06;98026.03;;;20.93;49.29
56414;BME280;42318;48.452;19.526;2023-04-06T16:55:38;98028.75;;;20.88;49.78
56414;BME280;42318;48.452;19.526;2023-04-06T17:03:09;98027.66;;;20.84;50.74
56414;BME280;42318;48.452;19.526;2023-04-06T17:10:40;98028.22;;;20.81;50.38
56414;BME280;42318;48.452;19.526;2023-04-06T17:18:11;98038.03;;;20.82;50.31
56414;BME280;42318;48.452;19.526;2023-04-06T17:25:42;98042.34;;;20.78;50.36
56414;BME280;42318;48.452;19.526;2023-04-06T17:33:12;98047.28;;;20.81;50.50
56414;BME280;42318;48.452;19.526;2023-04-06T17:40:45;98052.97;;;20.80;50.34
56414;BME280;42318;48.452;19.526;2023-04-06T17:48:16;98060.63;;;20.83;49.97
56414;BME280;42318;48.452;19.526;2023-04-06T17:55:47;98060.06;;;20.86;49.44
56414;BME280;42318;48.452;19.526;2023-04-06T18:03:17;98047.28;;;20.91;49.13
56414;BME280;42318;48.452;19.526;2023-04-06T18:10:48;98049.19;;;21.01;49.06
56414;BME280;42318;48.452;19.526;2023-04-06T18:18:19;98042.91;;;21.06;48.86
56414;BME280;42318;48.452;19.526;2023-04-06T18:25:50;98038.28;;;21.01;49.10
56414;BME280;42318;48.452;19.526;2023-04-06T18:33:21;98033.66;;;20.96;49.44
56414;BME280;42318;48.452;19.526;2023-04-06T18:40:52;98033.38;;;20.98;49.62
56414;BME280;42318;48.452;19.526;2023-04-06T18:48:23;98041.81;;;21.07;49.45
56414;BME280;42318;48.452;19.526;2023-04-06T18:55:57;98035.81;;;21.20;49.01
56414;BME280;42318;48.452;19.526;2023-04-06T19:03:28;98048.66;;;21.29;49.06
56414;BME280;42318;48.452;19.526;2023-04-06T19:11:06;98036.66;;;21.36;48.91
56414;BME280;42318;48.452;19.526;2023-04-06T19:18:38;98040.19;;;21.41;49.25
56414;BME280;42318;48.452;19.526;2023-04-06T19:26:13;98034.22;;;21.29;49.50
56414;BME280;42318;48.452;19.526;2023-04-06T19:33:44;98024.41;;;21.23;49.49
56414;BME280;42318;48.452;19.526;2023-04-06T19:41:16;98017.84;;;21.19;49.70
56414;BME280;42318;48.452;19.526;2023-04-06T19:48:47;98017.84;;;21.19;49.63
56414;BME280;42318;48.452;19.526;2023-04-06T19:56:17;98024.63;;;21.21;49.60
56414;BME280;42318;48.452;19.526;2023-04-06T20:03:48;98014.06;;;21.25;49.50
56414;BME280;42318;48.452;19.526;2023-04-06T20:11:19;98025.47;;;21.37;49.23
56414;BME280;42318;48.452;19.526;2023-04-06T20:18:50;98028.47;;;21.46;49.25
56414;BME280;42318;48.452;19.526;2023-04-06T20:26:23;98023.84;;;21.41;49.36
56414;BME280;42318;48.452;19.526;2023-04-06T20:33:53;98031.19;;;21.41;48.78
56414;BME280;42318;48.452;19.526;2023-04-06T20:41:25;98023.56;;;21.43;48.66
56414;BME280;42318;48.452;19.526;2023-04-06T20:48:55;98006.66;;;21.41;48.82
56414;BME280;42318;48.452;19.526;2023-04-06T20:56:26;97991.16;;;21.36;48.77
56414;BME280;42318;48.452;19.526;2023-04-06T21:03:58;97979.47;;;21.25;48.40
56414;BME280;42318;48.452;19.526;2023-04-06T21:11:29;97962.28;;;21.10;49.05
56414;BME280;42318;48.452;19.526;2023-04-06T21:19:00;97955.47;;;21.12;48.76
56414;BME280;42318;48.452;19.526;2023-04-06T21:26:32;97949.75;;;21.09;48.88
56414;BME280;42318;48.452;19.526;2023-04-06T21:34:07;97948.94;;;21.03;48.61
56414;BME280;42318;48.452;19.526;2023-04-06T21:41:37;97959.31;;;20.96;48.88
56414;BME280;42318;48.452;19.526;2023-04-06T21:49:10;97963.94;;;20.90;48.48
56414;BME280;42318;48.452;19.526;2023-04-06T21:56:40;97968.31;;;20.86;48.45
56414;BME280;42318;48.452;19.526;2023-04-06T22:04:11;97952.22;;;20.80;48.67
56414;BME280;42318;48.452;19.526;2023-04-06T22:11:42;97929.34;;;20.76;48.85
56414;BME280;42318;48.452;19.526;2023-04-06T22:19:13;97933.16;;;20.75;48.46
56414;BME280;42318;48.452;19.526;2023-04-06T22:26:44;97922.03;;;20.81;48.06
56414;BME280;42318;48.452;19.526;2023-04-06T22:34:15;97912.75;;;20.72;48.16
56414;BME280;42318;48.452;19.526;2023-04-06T22:41:46;97937.25;;;20.77;48.22
56414;BME280;42318;48.452;19.526;2023-04-06T22:49:16;97923.66;;;20.82;48.10
56414;BME280;42318;48.452;19.526;2023-04-06T22:56:47;97918.22;;;20.87;47.80
56414;BME280;42318;48.452;19.526;2023-04-06T23:04:18;97930.72;;;20.98;47.36
56414;BME280;42318;48.452;19.526;2023-04-06T23:11:49;97919.78;;;21.04;47.16
56414;BME280;42318;48.452;19.526;2023-04-06T23:19:20;97906.75;;;20.95;47.14
56414;BME280;42318;48.452;19.526;2023-04-06T23:26:50;97904.03;;;20.80;47.70
56414;BME280;42318;48.452;19.526;2023-04-06T23:34:21;97899.94;;;20.78;47.49
56414;BME280;42318;48.452;19.526;2023-04-06T23:41:52;97891.25;;;20.70;47.63
56414;BME280;42318;48.452;19.526;2023-04-06T23:49:23;97902.16;;;20.65;47.85
56414;BME280;42318;48.452;19.526;2023-04-06T23:56:54;97889.38;;;20.61;47.75
